Aviation Digital Data Service (ADDS)

Output produced by METARs form (0244 UTC 24 July 2017)
found at http://www.aviationweather.gov/adds/metars/
 
ZMUB 240230Z VRB02MPS 9999 FEW030CB SCT033 19/07 Q1014 NOSIG RMK QFE653.6 45 MOP
TAF AMD ZMUB 232324Z 2400/2506 16007MPS 9999 FEW030CB SCT033 TX24/2407Z TN11/2421Z 
     TEMPO 2400/2410 VRB08G13MPS TS -SHRA SCT030CB SCT033 
     BECMG 2406/2408 VRB02MPS 
     TEMPO 2417/2424 VRB08MPS TS -SHRA SCT030CB SCT033